Thunder radar more information blitzortung!


Radar de pluja more information rain snow radar


Visita la nostra xarxa de llocs de meteo:

Template documentation
and downloads

And another site



No particular awareness of the weather is required.    There are no Weather-warnings

Pagina Historial Weather Underground text

Diari Resum Juny 30, 2017 Unitats:  Imperial    Mètric   Tant
« Previous Dia
SegĂźent Dia »
Diari Setmana Mensual Anual Personalitzada
  Maxima: Minima: Media:
Temperatura: 81.7 °F 59.4 °F 72.9 °F
Punt de rosada: 49.6 °F 38.7 °F 42.8 °F
Humitat: 55 % 25 % 35 %
Wind Speed: 17.3 mph 0 mph 5.2 mph
RĂ fegues de vent: 17.3 mph - -
Vent:- - SW
Pression baro: 30 in 29.8 in -
Precipitacions: 0 in    
Historical Graphs
 
 
Dades de taula per Juny 30, 2017
Temps Temperatura Punt de rosada Pression baro Vent Wind Speed RĂ fegues de vent Humitat Rainfall Rate (Hourly)
00:02 67.5 °F 47.7 °F 29.8 in ESE 3.5 mph 3.5 mph 49 % 0 in
00:05 61.5 °F 43.7 °F 29.8 in NNE 1 mph 3 mph 52 % 0 in
00:07 67.3 °F 47.5 °F 29.8 in ESE 7.4 mph 7.4 mph 49 % 0 in
00:12 66.6 °F 46.8 °F 29.8 in ESE 4.6 mph 4.6 mph 49 % 0 in
00:15 61.7 °F 43.9 °F 29.8 in NW 1 mph 1 mph 52 % 0 in
00:25 61.9 °F 44.1 °F 29.8 in NNW 1 mph 2 mph 52 % 0 in
00:35 62.1 °F 44.2 °F 29.8 in NNE 2 mph 3 mph 52 % 0 in
00:45 61.9 °F 44.1 °F 29.8 in Calm   1 mph 52 % 0 in
00:55 61.5 °F 43.7 °F 29.8 in Calm     52 % 0 in
01:05 61.3 °F 44.1 °F 29.8 in Calm   2 mph 53 % 0 in
01:15 61.2 °F 43.9 °F 29.8 in Calm   1 mph 53 % 0 in
01:25 59.9 °F 42.6 °F 29.8 in WSW 2 mph 3 mph 53 % 0 in
01:35 59.4 °F 42.6 °F 29.8 in SW 1 mph 2 mph 54 % 0 in
01:45 59.5 °F 43 °F 29.8 in SW 2 mph 3 mph 54 % 0 in
01:55 59.5 °F 43 °F 29.8 in WSW 1 mph 3 mph 54 % 0 in
02:05 59.5 °F 43.3 °F 29.8 in Calm   1 mph 55 % 0 in
02:15 59.5 °F 43.3 °F 29.8 in Calm     55 % 0 in
02:25 60.1 °F 43.9 °F 29.8 in WSW 1 mph 2 mph 55 % 0 in
02:35 60.8 °F 44.4 °F 29.9 in WSW 2 mph 2 mph 55 % 0 in
02:45 62.1 °F 45.7 °F 29.9 in Calm   2 mph 55 % 0 in
02:55 63.5 °F 46.6 °F 29.9 in SW 1 mph 2 mph 54 % 0 in
03:05 63.7 °F 46.8 °F 29.9 in South 1 mph 2 mph 54 % 0 in
03:15 64.8 °F 47.1 °F 29.9 in SSE 2 mph 2 mph 53 % 0 in
03:25 65.3 °F 47.7 °F 29.9 in Calm   2 mph 53 % 0 in
03:35 64.8 °F 47.1 °F 29.8 in SW 1 mph 3 mph 53 % 0 in
03:45 65.3 °F 47.1 °F 29.8 in SW 2 mph 3 mph 52 % 0 in
03:55 66.6 °F 47.8 °F 29.9 in Calm   2 mph 51 % 0 in
04:05 67.8 °F 48.9 °F 29.9 in NNW 1 mph 3 mph 51 % 0 in
04:15 69.1 °F 49.6 °F 29.9 in ENE 1 mph 3 mph 50 % 0 in
04:25 69.3 °F 49.3 °F 29.9 in East 3 mph 4 mph 49 % 0 in
04:35 70.2 °F 49.5 °F 29.9 in ENE 2 mph 2 mph 48 % 0 in
04:45 70.2 °F 48.4 °F 29.9 in SW 3 mph 4 mph 46 % 0 in
09:48 70.5 °F 47.5 °F 29.9 in WSW 2.3 mph 2.6 mph 44 % 0 in
09:53 70.2 °F 46.6 °F 29.9 in WNW 5.8 mph 5.8 mph 43 % 0 in
09:58 71.1 °F 47.5 °F 29.9 in West 2.6 mph 2.6 mph 43 % 0 in
10:03 71.1 °F 46.8 °F 29.9 in WSW 5.8 mph 5.8 mph 42 % 0 in
10:08 71.8 °F 47.5 °F 29.9 in WSW 2.4 mph 2.4 mph 42 % 0 in
10:13 71.2 °F 46.9 °F 29.9 in SSW 5.8 mph 5.8 mph 42 % 0 in
10:18 72.5 °F 48 °F 29.9 in WSW 3.5 mph 3.5 mph 42 % 0 in
10:23 72.1 °F 47.1 °F 29.9 in WNW 6.9 mph 6.9 mph 41 % 0 in
10:28 72 °F 46.2 °F 29.9 in West 5.8 mph 5.8 mph 40 % 0 in
10:33 71.6 °F 45.3 °F 29.9 in NW 9.2 mph 9.2 mph 39 % 0 in
10:38 72.3 °F 46 °F 29.9 in West 8.1 mph 8.1 mph 39 % 0 in
10:43 72.1 °F 45.1 °F 29.9 in SW 4.6 mph 5.9 mph 38 % 0 in
10:48 72 °F 45 °F 29.9 in WSW 8.1 mph 8.1 mph 38 % 0 in
10:53 72.3 °F 45.3 °F 29.9 in West 8.1 mph 8.1 mph 38 % 0 in
10:58 72.3 °F 44.6 °F 29.9 in WNW 6.9 mph 6.9 mph 37 % 0 in
11:03 72.9 °F 45.1 °F 29.9 in WNW 4.7 mph 4.7 mph 37 % 0 in
11:08 73.6 °F 45 °F 29.9 in WSW 3.5 mph 3.5 mph 36 % 0 in
11:13 73.6 °F 45 °F 29.9 in SW 6.9 mph 6.9 mph 36 % 0 in
11:18 74.3 °F 45.7 °F 29.9 in West 8.7 mph 8.7 mph 36 % 0 in
11:23 74.3 °F 45 °F 29.9 in SW 8.1 mph 8.1 mph 35 % 0 in
11:28 74.7 °F 45.1 °F 29.9 in NE 6.9 mph 6.9 mph 35 % 0 in
11:33 75.4 °F 45.9 °F 29.9 in NW 3.5 mph 3.5 mph 35 % 0 in
11:38 75.2 °F 45.7 °F 29.9 in WSW 8.1 mph 8.1 mph 35 % 0 in
11:43 75 °F 44.8 °F 29.9 in WNW 8.1 mph 8.1 mph 34 % 0 in
11:48 75.4 °F 45.1 °F 29.9 in West 4.6 mph 4.6 mph 34 % 0 in
11:53 75 °F 44.1 °F 29.9 in SW 5.8 mph 5.8 mph 33 % 0 in
11:58 75.7 °F 45.3 °F 29.9 in WSW 4.6 mph 4.6 mph 34 % 0 in
12:03 76.8 °F 46.2 °F 29.9 in SSW 4.6 mph 4.6 mph 34 % 0 in
12:08 76.5 °F 46 °F 29.9 in South 5.8 mph 5.8 mph 34 % 0 in
12:13 76.8 °F 44.8 °F 29.9 in WSW 5.8 mph 5.8 mph 32 % 0 in
12:18 77 °F 45 °F 29.9 in West 3.5 mph 3.5 mph 32 % 0 in
12:23 77.5 °F 45.3 °F 29.9 in NE 6.2 mph 6.2 mph 32 % 0 in
12:28 77.2 °F 44.2 °F 29.9 in SW 6.9 mph 6.9 mph 31 % 0 in
12:33 77.2 °F 44.2 °F 29.9 in NNE 3.5 mph 3.5 mph 31 % 0 in
12:38 78.3 °F 45.1 °F 29.9 in West 5.4 mph 5.4 mph 31 % 0 in
12:43 77.2 °F 43.3 °F 29.9 in NW 10.4 mph 10.4 mph 30 % 0 in
12:48 77.5 °F 42.8 °F 29.9 in WSW 4.6 mph 4.6 mph 29 % 0 in
12:53 77.7 °F 43.9 °F 29.9 in SW 7.6 mph 7.6 mph 30 % 0 in
12:58 77.4 °F 43.5 °F 29.9 in ENE 6.9 mph 6.9 mph 30 % 0 in
13:03 77 °F 42.3 °F 29.9 in West 7.6 mph 7.6 mph 29 % 0 in
13:08 76.8 °F 43 °F 29.9 in WSW 3.5 mph 3.5 mph 30 % 0 in
13:13 78.1 °F 43.2 °F 29.9 in SW 5.8 mph 5.8 mph 29 % 0 in
13:18 78.6 °F 43.7 °F 29.9 in West 10.4 mph 10.4 mph 29 % 0 in
13:23 78.4 °F 43.5 °F 29.9 in West 6 mph 6 mph 29 % 0 in
13:28 78.3 °F 43.3 °F 29.9 in WSW 8.1 mph 8.1 mph 29 % 0 in
13:33 78.3 °F 42.4 °F 29.9 in WSW 6.9 mph 6.9 mph 28 % 0 in
13:38 78.8 °F 43 °F 29.9 in WSW 6.9 mph 6.9 mph 28 % 0 in
13:43 78.3 °F 42.4 °F 29.9 in SW 6.9 mph 6.9 mph 28 % 0 in
13:48 78.4 °F 42.6 °F 29.9 in NW 7.4 mph 7.4 mph 28 % 0 in
13:53 77.9 °F 42.3 °F 29.9 in SW 9.2 mph 9.2 mph 28 % 0 in
13:58 78.4 °F 42.6 °F 29.9 in SW 9.2 mph 9.2 mph 28 % 0 in
14:00 78.8 °F 43 °F 29.9 in WNW 10.4 mph 10.4 mph 28 % 0 in
14:05 78.8 °F 43 °F 29.9 in West 11.5 mph 11.5 mph 28 % 0 in
14:10 78.4 °F 41.7 °F 29.9 in SW 9.2 mph 9.2 mph 27 % 0 in
14:15 79.2 °F 43.2 °F 29.8 in WNW 3.6 mph 3.6 mph 28 % 0 in
14:20 79.7 °F 42.8 °F 29.8 in West 7.6 mph 7.6 mph 27 % 0 in
14:25 79.3 °F 42.4 °F 29.8 in West 9 mph 9 mph 27 % 0 in
14:30 79.2 °F 42.3 °F 29.9 in West 5.8 mph 5.8 mph 27 % 0 in
14:35 79.3 °F 42.4 °F 29.9 in West 9.2 mph 9.2 mph 27 % 0 in
14:40 79.7 °F 41.7 °F 29.9 in West 5.8 mph 5.8 mph 26 % 0 in
14:45 79.9 °F 43 °F 29.9 in SE 5.8 mph 5.8 mph 27 % 0 in
14:50 78.8 °F 41 °F 29.9 in West 11.5 mph 11.5 mph 26 % 0 in
14:55 79 °F 41.2 °F 29.9 in WSW 5.8 mph 5.9 mph 26 % 0 in
15:00 78.8 °F 41 °F 29.9 in ENE 11.5 mph 11.5 mph 26 % 0 in
15:05 79.3 °F 41.5 °F 29.9 in WNW 12.7 mph 12.7 mph 26 % 0 in
15:10 79.7 °F 41.7 °F 29.9 in West 6.9 mph 6.9 mph 26 % 0 in
15:15 79 °F 41.2 °F 29.9 in SW 17.3 mph 17.3 mph 26 % 0 in
15:20 79.9 °F 41.9 °F 29.9 in SW 10.4 mph 10.4 mph 26 % 0 in
15:25 80.2 °F 42.3 °F 29.9 in WSW 8.1 mph 8.1 mph 26 % 0 in
15:30 80.8 °F 42.6 °F 29.9 in SSW 10.4 mph 10.4 mph 26 % 0 in
15:35 80.2 °F 42.3 °F 29.9 in WSW 8.1 mph 8.1 mph 26 % 0 in
15:40 80.4 °F 41.4 °F 29.9 in WSW 10.4 mph 10.4 mph 25 % 0 in
15:45 80.8 °F 42.6 °F 29.9 in WSW 6 mph 6 mph 26 % 0 in
15:50 80.4 °F 41.4 °F 29.9 in West 9.2 mph 9.2 mph 25 % 0 in
15:55 80.8 °F 41.7 °F 29.9 in NW 5.8 mph 5.8 mph 25 % 0 in
16:00 80.1 °F 41.2 °F 29.9 in NNW 11.5 mph 11.5 mph 25 % 0 in
16:05 80.8 °F 41.7 °F 29.9 in WSW 5.8 mph 5.8 mph 25 % 0 in
16:10 81.3 °F 43.2 °F 29.9 in West 6 mph 6 mph 26 % 0 in
16:15 81.1 °F 42.1 °F 29.9 in NW 8.1 mph 8.1 mph 25 % 0 in
16:20 80.4 °F 41.4 °F 29.9 in NNW 5.8 mph 5.8 mph 25 % 0 in
16:25 79.7 °F 40.8 °F 29.9 in West 5.8 mph 5.8 mph 25 % 0 in
16:30 80.6 °F 41.5 °F 29.8 in West 6.9 mph 6.9 mph 25 % 0 in
16:35 80.6 °F 41.5 °F 29.8 in SW 9.2 mph 9.2 mph 25 % 0 in
16:40 81.1 °F 43 °F 29.8 in ENE 5.8 mph 5.8 mph 26 % 0 in
16:45 81.3 °F 43.2 °F 29.8 in WSW 5.8 mph 5.8 mph 26 % 0 in
16:50 81.7 °F 43.5 °F 29.8 in SW 10.4 mph 10.4 mph 26 % 0 in
16:55 80.6 °F 42.4 °F 29.8 in SW 10.4 mph 10.4 mph 26 % 0 in
17:00 81.1 °F 43 °F 29.8 in SW 5.9 mph 5.9 mph 26 % 0 in
17:05 80.8 °F 42.6 °F 29.8 in West 10.4 mph 10.4 mph 26 % 0 in
17:06 80.8 °F 42.6 °F 29.8 in WSW 5.4 mph 5.4 mph 26 % 0 in
17:11 81.1 °F 43 °F 29.8 in SW 11.5 mph 11.5 mph 26 % 0 in
17:16 81.1 °F 43 °F 29.8 in NW 5.8 mph 5.8 mph 26 % 0 in
17:21 81 °F 42.8 °F 29.8 in West 6.9 mph 6.9 mph 26 % 0 in
17:26 81 °F 42.8 °F 29.8 in SSE 9.2 mph 9.2 mph 26 % 0 in
17:31 81.5 °F 43.3 °F 29.8 in WSW 7.8 mph 7.8 mph 26 % 0 in
17:36 80.6 °F 42.4 °F 29.8 in SSW 9.2 mph 9.2 mph 26 % 0 in
17:41 80.4 °F 42.4 °F 29.8 in West 6.9 mph 6.9 mph 26 % 0 in
17:46 79.9 °F 41.9 °F 29.8 in SSW 9.2 mph 9.2 mph 26 % 0 in
17:51 79.9 °F 41.9 °F 29.8 in WSW 6.9 mph 6.9 mph 26 % 0 in
17:56 80.6 °F 42.4 °F 29.8 in South 6.9 mph 6.9 mph 26 % 0 in
18:01 80.1 °F 42.1 °F 29.8 in WSW 8.1 mph 8.1 mph 26 % 0 in
18:06 80.8 °F 42.6 °F 29.8 in West 5.8 mph 5.8 mph 26 % 0 in
18:11 79.7 °F 41.7 °F 29.8 in WSW 12.7 mph 12.7 mph 26 % 0 in
18:16 78.6 °F 40.8 °F 29.8 in WSW 12.7 mph 12.7 mph 26 % 0 in
18:21 79.5 °F 41.5 °F 29.8 in WNW 7.6 mph 7.6 mph 26 % 0 in
18:26 78.8 °F 41 °F 29.8 in SSW 10.4 mph 10.4 mph 26 % 0 in
18:31 78.6 °F 40.8 °F 29.8 in West 15 mph 15 mph 26 % 0 in
18:36 78.1 °F 40.5 °F 29.8 in WNW 12.7 mph 12.7 mph 26 % 0 in
18:41 78.4 °F 40.6 °F 29.9 in SW 5.8 mph 5.9 mph 26 % 0 in
18:46 78.3 °F 40.5 °F 29.9 in South 11.5 mph 11.5 mph 26 % 0 in
18:51 77.7 °F 40.1 °F 29.9 in SE 9.2 mph 9.2 mph 26 % 0 in
18:56 77.5 °F 39.9 °F 29.8 in SW 6.9 mph 6.9 mph 26 % 0 in
19:01 77.2 °F 39.6 °F 29.8 in WSW 9.2 mph 9.2 mph 26 % 0 in
19:06 77.2 °F 40.6 °F 29.8 in SW 5.8 mph 5.8 mph 27 % 0 in
19:11 77.4 °F 40.8 °F 29.8 in NW 4.6 mph 4.6 mph 27 % 0 in
19:12 77.4 °F 40.8 °F 29.8 in WSW 5.8 mph 5.8 mph 27 % 0 in
19:15 66.4 °F 42.6 °F 30 in NE 3 mph 6 mph 42 % 0 in
19:17 77.5 °F 40.8 °F 29.8 in SW 5.8 mph 5.8 mph 27 % 0 in
19:22 77.4 °F 40.8 °F 29.8 in WSW 4.6 mph 4.6 mph 27 % 0 in
19:23 77.4 °F 40.8 °F 29.8 in West 5.6 mph 5.6 mph 27 % 0 in
19:25 66 °F 44.1 °F 30 in NE 2 mph 4 mph 45 % 0 in
19:28 77.4 °F 40.8 °F 29.9 in SW 5.4 mph 5.4 mph 27 % 0 in
19:33 77.2 °F 40.6 °F 29.9 in SW 7.6 mph 7.6 mph 27 % 0 in
19:35 65.5 °F 44.1 °F 30 in East 5 mph 5 mph 46 % 0 in
19:38 77 °F 40.5 °F 29.9 in SW 9.2 mph 9.2 mph 27 % 0 in
19:43 76.8 °F 41.2 °F 29.9 in West 8.5 mph 8.5 mph 28 % 0 in
19:48 76.6 °F 41.2 °F 29.9 in SW 9.2 mph 9.2 mph 28 % 0 in
19:53 76.6 °F 41.2 °F 29.9 in SSW 4.6 mph 4.6 mph 28 % 0 in
19:55 65.1 °F 44.4 °F 30 in ENE 3 mph 4 mph 47 % 0 in
19:58 76.5 °F 40.8 °F 29.9 in SW 11.5 mph 11.5 mph 28 % 0 in
20:03 76.3 °F 40.8 °F 29.9 in WSW 6.9 mph 6.9 mph 28 % 0 in
20:05 64.9 °F 44.8 °F 30 in NE 3 mph 5 mph 48 % 0 in
20:08 75.7 °F 40.3 °F 29.9 in West 8.1 mph 8.1 mph 28 % 0 in
20:13 75.6 °F 40.3 °F 29.9 in NNW 5.8 mph 5.8 mph 28 % 0 in
20:15 64.6 °F 45 °F 30 in NE 3 mph 3 mph 49 % 0 in
20:23 75 °F 39.7 °F 29.9 in West 5.8 mph 5.8 mph 28 % 0 in
20:25 64.4 °F 44.8 °F 30 in NE 5 mph 5 mph 49 % 0 in
20:28 74.8 °F 39.6 °F 29.9 in WSW 5.8 mph 5.8 mph 28 % 0 in
20:33 74.3 °F 39.9 °F 29.9 in WSW 5.8 mph 5.8 mph 29 % 0 in
20:35 64.2 °F 44.6 °F 30 in NE 2 mph 5 mph 49 % 0 in
20:38 74.1 °F 39.7 °F 29.9 in WSW 5.8 mph 5.8 mph 29 % 0 in
20:43 73.9 °F 39.7 °F 29.9 in West 3.5 mph 3.5 mph 29 % 0 in
20:45 63.9 °F 45 °F 30 in NE 1 mph 2 mph 50 % 0 in
20:48 73.9 °F 39.7 °F 29.9 in WSW 2.3 mph 2.3 mph 29 % 0 in
20:53 73.8 °F 39.6 °F 29.9 in SW 2.3 mph 2.3 mph 29 % 0 in
20:55 63.5 °F 44.4 °F 30 in Calm   1 mph 50 % 0 in
20:58 73.8 °F 39.6 °F 29.9 in WSW 1.6 mph 1.6 mph 29 % 0 in
21:03 73.6 °F 39.4 °F 29.9 in SSW 4.6 mph 4.6 mph 29 % 0 in
21:05 63.3 °F 44.4 °F 30 in NE 2 mph 2 mph 50 % 0 in
21:08 73.4 °F 39.2 °F 29.9 in WNW 5.8 mph 5.8 mph 29 % 0 in
21:13 73.2 °F 39.9 °F 29.9 in South 2.3 mph 2.3 mph 30 % 0 in
21:15 62.8 °F 43.9 °F 30 in Calm   1 mph 50 % 0 in
21:18 73.2 °F 39.9 °F 29.9 in ESE 2.3 mph 2.3 mph 30 % 0 in
21:23 73 °F 39.7 °F 29.9 in SW 4.6 mph 4.6 mph 30 % 0 in
21:25 62.4 °F 44.6 °F 30 in Calm   2 mph 52 % 0 in
21:28 72.9 °F 39.6 °F 29.9 in West 5.8 mph 5.8 mph 30 % 0 in
21:33 72.5 °F 39.4 °F 29.9 in WSW 4.6 mph 4.6 mph 30 % 0 in
21:35 62.1 °F 44.2 °F 30 in WSW 1 mph 2 mph 52 % 0 in
21:38 72.3 °F 39 °F 29.9 in North 4.6 mph 4.6 mph 30 % 0 in
21:43 72.3 °F 39 °F 29.9 in WSW 2.3 mph 2.3 mph 30 % 0 in
21:45 62.2 °F 43.9 °F 30 in WSW 1 mph 2 mph 51 % 0 in
21:48 72.1 °F 39.7 °F 29.9 in West 2.3 mph 2.3 mph 31 % 0 in
21:53 72 °F 39.7 °F 29.9 in WSW 3.5 mph 3.5 mph 31 % 0 in
21:55 62.4 °F 44.1 °F 30 in WSW 1 mph 2 mph 51 % 0 in
21:58 71.8 °F 39.6 °F 29.9 in SSE 4.6 mph 4.6 mph 31 % 0 in
22:03 71.6 °F 39.4 °F 29.9 in SSW 4.6 mph 4.6 mph 31 % 0 in
22:05 62.4 °F 44.6 °F 30 in Calm   3 mph 52 % 0 in
22:08 71.4 °F 39.2 °F 29.9 in SW 5.8 mph 5.8 mph 31 % 0 in
22:13 71.2 °F 39 °F 29.9 in WSW 3.5 mph 3.5 mph 31 % 0 in
22:15 62.4 °F 43.5 °F 30 in WSW 2 mph 3 mph 50 % 0 in
22:18 71.1 °F 38.8 °F 29.9 in WSW 3.5 mph 3.5 mph 31 % 0 in
22:23 70.9 °F 38.7 °F 29.9 in WSW 2.4 mph 2.4 mph 31 % 0 in
22:25 62.2 °F 42.8 °F 30 in Calm   2 mph 49 % 0 in
22:28 70.7 °F 38.7 °F 30 in West 2.4 mph 2.4 mph 31 % 0 in
22:33 70.5 °F 39.2 °F 30 in SW 6.4 mph 6.4 mph 32 % 0 in
22:35 62.2 °F 42.8 °F 30 in SW 3 mph 3 mph 49 % 0 in
22:38 70.5 °F 39.2 °F 30 in West 2.3 mph 2.3 mph 32 % 0 in
22:43 70.3 °F 39 °F 30 in WSW 2.4 mph 2.4 mph 32 % 0 in
22:45 61.7 °F 43 °F 30 in WSW 1 mph 3 mph 50 % 0 in
22:48 70.3 °F 39 °F 30 in West 5.9 mph 5.9 mph 32 % 0 in
22:53 70.2 °F 38.8 °F 30 in SW 2.3 mph 2.3 mph 32 % 0 in
22:55 61.7 °F 42.3 °F 30 in West 1 mph 2 mph 49 % 0 in
22:58 70.2 °F 38.8 °F 30 in West 4.9 mph 4.9 mph 32 % 0 in
23:03 70 °F 38.8 °F 30 in SW 2.3 mph 2.3 mph 32 % 0 in
23:05 61.9 °F 42.1 °F 30 in West 3 mph 3 mph 48 % 0 in
23:08 70 °F 38.8 °F 30 in WNW 2.3 mph 2.3 mph 32 % 0 in
23:13 70 °F 38.8 °F 30 in WNW 2.3 mph 2.3 mph 32 % 0 in
23:15 61.2 °F 41.4 °F 30 in SW 1 mph 3 mph 48 % 0 in
23:18 69.8 °F 39.4 °F 30 in West 2 mph 2 mph 33 % 0 in
23:23 69.8 °F 39.4 °F 30 in SW 2.3 mph 2.3 mph 33 % 0 in
23:24 69.8 °F 39.4 °F 30 in SW 2.3 mph 2.3 mph 33 % 0 in
23:25 61.2 °F 41.4 °F 30 in SSW 1 mph 3 mph 48 % 0 in
23:29 69.6 °F 39.2 °F 30 in NW 3.5 mph 3.5 mph 33 % 0 in
23:34 69.4 °F 39 °F 30 in NNW 2.4 mph   33 % 0 in
23:35 61.5 °F 41.5 °F 30 in SW 2 mph 5 mph 48 % 0 in
23:39 69.3 °F 39.7 °F 30 in West 1.2 mph   34 % 0 in
23:44 68.9 °F 40.1 °F 30 in ESE 6 mph 6 mph 35 % 0 in
23:45 61.5 °F 41.2 °F 30 in SW 1 mph 3 mph 47 % 0 in
23:49 67.8 °F 41.9 °F 30 in East 4.6 mph 4.6 mph 39 % 0 in
23:54 67.5 °F 42.3 °F 30 in NNE 3.1 mph 3.1 mph 40 % 0 in
23:55 61.5 °F 41.2 °F 30 in WSW 3 mph 3 mph 47 % 0 in
23:59 67.1 °F 42.6 °F 30 in NE 2.4 mph 2.4 mph 41 % 0 in
Meteo Sesrovires
Elogis d' Weather Underground - 3.75 mb

Guio original per  Jim McMurry - jmcmurry@mwt.net Adaptat per a la plantilla per  Wim van der Kuil - Leuven-Template.eu

Trobareu la nostra informacio del temps tambe a:

Weather Underground

AWEKAS